createdAt,value
2019-01-25T00:01:19.310Z,64.12
2019-01-25T00:03:49.621Z,64.19
2019-01-25T00:06:19.843Z,64.11
2019-01-25T00:08:50.158Z,64.58
2019-01-25T00:11:20.552Z,64.49
2019-01-25T00:13:50.830Z,64.45
2019-01-25T00:16:21.056Z,64.29
2019-01-25T00:18:51.344Z,64.00
2019-01-25T00:21:21.741Z,63.96
2019-01-25T00:23:52.036Z,64.32
2019-01-25T00:26:22.500Z,64.59
2019-01-25T00:28:53.092Z,64.79
2019-01-25T00:31:23.581Z,64.71
2019-01-25T00:33:53.819Z,64.81
2019-01-25T00:36:24.094Z,65.05
2019-01-25T00:38:54.424Z,64.92
2019-01-25T00:41:24.713Z,65.12
2019-01-25T00:43:54.962Z,64.96
2019-01-25T00:46:25.456Z,64.59
2019-01-25T00:48:56.603Z,64.57
2019-01-25T00:51:27.099Z,64.54
2019-01-25T00:53:57.332Z,64.46
2019-01-25T00:56:27.550Z,64.37
2019-01-25T00:58:57.785Z,64.58
2019-01-25T01:01:28.005Z,64.87
2019-01-25T01:03:58.251Z,65.12
2019-01-25T01:06:28.470Z,65.07
2019-01-25T01:08:58.713Z,64.94
2019-01-25T01:11:28.931Z,64.68
2019-01-25T01:13:59.174Z,65.04
2019-01-25T01:16:29.400Z,65.14
2019-01-25T01:18:59.641Z,64.86
2019-01-25T01:21:29.857Z,65.04
2019-01-25T01:24:00.095Z,64.91
2019-01-25T01:26:30.309Z,64.84
2019-01-25T01:29:00.554Z,64.76
2019-01-25T01:31:30.765Z,64.99
2019-01-25T01:34:01.006Z,64.87
2019-01-25T01:36:31.226Z,65.14
2019-01-25T01:39:01.466Z,64.68
2019-01-25T01:41:33.301Z,64.38
2019-01-25T01:44:03.545Z,64.24
2019-01-25T01:46:34.856Z,64.20
2019-01-25T01:49:05.530Z,63.94
2019-01-25T01:51:35.751Z,64.20
2019-01-25T01:54:05.986Z,63.78
2019-01-25T01:56:36.209Z,63.90
2019-01-25T01:59:06.468Z,63.74
2019-01-25T02:01:36.682Z,63.85
2019-01-25T02:04:06.918Z,64.05
2019-01-25T02:06:37.140Z,63.89
2019-01-25T02:09:07.551Z,63.78
2019-01-25T02:11:37.771Z,63.95
2019-01-25T02:14:08.011Z,63.74
2019-01-25T02:16:39.032Z,64.16
2019-01-25T02:19:09.292Z,63.64
2019-01-25T02:21:39.490Z,63.75
2019-01-25T02:24:09.744Z,63.69
2019-01-25T02:26:39.956Z,63.29
2019-01-25T02:29:11.820Z,63.84
2019-01-25T02:31:42.038Z,64.29
2019-01-25T02:34:12.274Z,64.47
2019-01-25T02:36:43.568Z,64.52
2019-01-25T02:39:14.169Z,64.78
2019-01-25T02:41:44.394Z,64.44
2019-01-25T02:44:14.645Z,64.41
2019-01-25T02:46:44.864Z,64.38
2019-01-25T02:49:15.102Z,64.38
2019-01-25T02:51:45.390Z,64.37
2019-01-25T02:54:15.631Z,64.11
2019-01-25T02:56:45.865Z,63.76
2019-01-25T02:59:16.096Z,63.93
2019-01-25T03:01:47.287Z,63.81
2019-01-25T03:04:17.524Z,63.68
2019-01-25T03:06:47.750Z,63.99
2019-01-25T03:09:18.361Z,63.65
2019-01-25T03:11:48.590Z,63.52
2019-01-25T03:14:18.826Z,63.59
2019-01-25T03:16:51.131Z,63.71
2019-01-25T03:19:21.362Z,64.30
2019-01-25T03:21:51.638Z,64.39
2019-01-25T03:24:21.827Z,64.23
2019-01-25T03:26:52.050Z,64.16
2019-01-25T03:29:22.290Z,64.01
2019-01-25T03:31:52.510Z,64.33
2019-01-25T03:34:22.755Z,64.11
2019-01-25T03:36:53.245Z,64.29
2019-01-25T03:39:23.493Z,63.47
2019-01-25T03:41:53.706Z,63.82
2019-01-25T03:44:23.946Z,63.71
2019-01-25T03:46:54.170Z,63.51
2019-01-25T03:49:24.409Z,63.24
2019-01-25T03:51:54.637Z,63.24
2019-01-25T03:54:24.870Z,62.93
2019-01-25T03:56:55.088Z,63.41
2019-01-25T03:59:25.318Z,63.42
2019-01-25T04:01:55.673Z,63.51
2019-01-25T04:04:25.956Z,63.51
2019-01-25T04:06:56.176Z,63.67
2019-01-25T04:09:26.409Z,63.92
2019-01-25T04:11:56.633Z,64.41
2019-01-25T04:14:27.146Z,64.87
2019-01-25T04:16:58.313Z,64.89
2019-01-25T04:19:28.587Z,65.05
2019-01-25T04:21:58.802Z,65.21
2019-01-25T04:24:29.051Z,65.34
2019-01-25T04:26:59.274Z,65.96
2019-01-25T04:29:29.515Z,66.42
2019-01-25T04:31:59.736Z,66.46
2019-01-25T04:34:29.980Z,66.49
2019-01-25T04:37:00.198Z,66.28
2019-01-25T04:39:33.593Z,66.67
2019-01-25T04:42:04.840Z,66.40
2019-01-25T04:44:40.910Z,66.54
2019-01-25T04:47:12.958Z,66.67
2019-01-25T04:49:44.428Z,66.89
2019-01-25T04:52:14.649Z,67.22
2019-01-25T04:54:44.894Z,67.02
2019-01-25T04:57:16.305Z,66.74
2019-01-25T04:59:46.550Z,67.47
2019-01-25T05:02:16.765Z,67.72
2019-01-25T05:04:47.007Z,67.31
2019-01-25T05:07:17.222Z,67.07
2019-01-25T05:09:47.459Z,66.72
2019-01-25T05:12:17.690Z,66.91
2019-01-25T05:14:47.953Z,66.22
2019-01-25T05:17:18.935Z,66.04
2019-01-25T05:19:49.175Z,66.55
2019-01-25T05:22:19.397Z,67.01
2019-01-25T05:24:50.609Z,67.30
2019-01-25T05:27:22.100Z,67.05
2019-01-25T05:29:55.001Z,67.11
2019-01-25T05:32:25.218Z,67.48
2019-01-25T05:34:55.455Z,67.79
2019-01-25T05:37:25.678Z,67.71
2019-01-25T05:39:55.918Z,67.45
2019-01-25T05:42:26.137Z,67.62
2019-01-25T05:44:56.372Z,67.79
2019-01-25T05:47:26.586Z,68.06
2019-01-25T05:49:56.825Z,67.91
2019-01-25T05:52:27.042Z,67.30
2019-01-25T05:54:57.284Z,67.04
2019-01-25T05:57:27.500Z,66.63
2019-01-25T05:59:57.743Z,66.44
2019-01-25T06:02:29.235Z,66.37
2019-01-25T06:04:59.474Z,66.51
2019-01-25T06:07:29.696Z,66.47
2019-01-25T06:09:59.933Z,66.32
2019-01-25T06:12:30.153Z,66.41
2019-01-25T06:15:00.400Z,65.93
2019-01-25T06:17:32.639Z,66.04
2019-01-25T06:20:02.883Z,65.83
2019-01-25T06:22:33.111Z,66.02
2019-01-25T06:25:03.720Z,66.38
2019-01-25T06:27:39.162Z,66.43
2019-01-25T06:30:14.787Z,66.21
2019-01-25T06:32:45.039Z,66.54
2019-01-25T06:35:15.284Z,66.60
2019-01-25T06:37:45.578Z,66.71
2019-01-25T06:40:16.183Z,66.57
2019-01-25T06:42:46.406Z,67.15
2019-01-25T06:45:16.925Z,67.44
2019-01-25T06:47:47.158Z,67.48
2019-01-25T06:50:17.404Z,67.04
2019-01-25T06:52:47.633Z,67.15
2019-01-25T06:55:17.956Z,67.61
2019-01-25T06:57:55.845Z,67.52
2019-01-25T07:00:27.727Z,67.67
2019-01-25T07:02:57.948Z,67.49
2019-01-25T07:05:28.186Z,67.52
2019-01-25T07:07:58.410Z,67.86
2019-01-25T07:10:28.658Z,67.48
2019-01-25T07:12:58.881Z,67.31
2019-01-25T07:15:29.121Z,67.23
2019-01-25T07:18:00.405Z,67.50
2019-01-25T07:20:30.668Z,67.31
2019-01-25T07:23:00.896Z,67.58
2019-01-25T07:25:32.335Z,67.10
2019-01-25T07:28:02.550Z,67.16
2019-01-25T07:30:34.278Z,67.43
2019-01-25T07:33:04.524Z,67.08
2019-01-25T07:35:34.764Z,66.82
2019-01-25T07:38:05.124Z,66.50
2019-01-25T07:40:35.546Z,66.40
2019-01-25T07:43:06.105Z,66.41
2019-01-25T07:45:36.594Z,65.60
2019-01-25T07:48:06.860Z,66.14
2019-01-25T07:50:38.181Z,66.21
2019-01-25T07:53:08.513Z,65.60
2019-01-25T07:55:38.893Z,65.14
2019-01-25T07:58:09.276Z,64.75
2019-01-25T08:00:39.724Z,65.37
2019-01-25T08:03:09.968Z,64.90
2019-01-25T08:05:40.209Z,64.61
2019-01-25T08:08:10.430Z,64.15
2019-01-25T08:10:40.669Z,62.79
2019-01-25T08:13:10.918Z,62.43
2019-01-25T08:15:42.299Z,61.88
2019-01-25T08:18:13.430Z,61.76
2019-01-25T08:20:43.671Z,61.50
2019-01-25T08:23:13.891Z,61.82
2019-01-25T08:25:51.948Z,61.64
2019-01-25T08:28:23.483Z,60.22
2019-01-25T08:30:53.715Z,60.26
2019-01-25T08:33:25.535Z,60.54
2019-01-25T08:35:55.868Z,59.77
2019-01-25T08:38:26.137Z,59.80
2019-01-25T08:40:57.991Z,59.13
2019-01-25T08:43:28.393Z,59.83
2019-01-25T08:45:58.735Z,58.63
2019-01-25T08:48:29.239Z,59.25
2019-01-25T08:50:59.879Z,59.48
2019-01-25T08:53:31.311Z,60.12
2019-01-25T08:56:01.566Z,59.88
2019-01-25T08:58:32.070Z,59.90
2019-01-25T09:01:02.309Z,60.32
2019-01-25T09:03:32.572Z,60.22
2019-01-25T09:06:03.997Z,60.35
2019-01-25T09:08:34.228Z,60.39
2019-01-25T09:11:04.490Z,60.92
2019-01-25T09:13:34.713Z,60.67
2019-01-25T09:16:04.982Z,60.68
2019-01-25T09:18:36.297Z,60.99
2019-01-25T09:21:09.403Z,60.61
2019-01-25T09:23:39.662Z,60.23
2019-01-25T09:26:09.929Z,58.84
2019-01-25T09:28:40.160Z,59.00
2019-01-25T09:31:10.740Z,57.96
2019-01-25T09:33:41.183Z,58.33
2019-01-25T09:36:12.522Z,58.03
2019-01-25T09:38:42.810Z,57.69
2019-01-25T09:41:13.140Z,58.27
2019-01-25T09:43:43.324Z,57.15
2019-01-25T09:46:14.040Z,57.35
2019-01-25T09:48:44.275Z,56.69
2019-01-25T09:51:16.129Z,56.40
2019-01-25T09:53:46.367Z,57.24
2019-01-25T09:56:16.649Z,56.37
2019-01-25T09:58:46.908Z,56.92
2019-01-25T10:01:17.167Z,56.42
2019-01-25T10:03:47.419Z,57.53
2019-01-25T10:06:17.668Z,56.11
2019-01-25T10:08:48.380Z,57.41
2019-01-25T10:11:18.619Z,57.40
2019-01-25T10:13:48.841Z,56.75
2019-01-25T10:16:19.142Z,57.57
2019-01-25T10:18:50.231Z,58.36
2019-01-25T10:21:20.952Z,58.28
2019-01-25T10:23:53.827Z,58.47
2019-01-25T10:26:26.169Z,57.67
2019-01-25T10:28:56.975Z,57.54
2019-01-25T10:31:29.334Z,57.43
2019-01-25T10:34:02.832Z,57.12
2019-01-25T10:36:33.432Z,57.00
2019-01-25T10:39:07.236Z,57.47
2019-01-25T10:41:43.871Z,56.67
2019-01-25T10:44:17.022Z,56.67
2019-01-25T10:46:48.975Z,56.82
2019-01-25T10:49:19.313Z,56.69
2019-01-25T10:51:49.547Z,55.82
2019-01-25T10:54:19.763Z,56.17
2019-01-25T10:56:50.003Z,55.71
2019-01-25T10:59:21.454Z,55.43
2019-01-25T11:01:52.948Z,55.51
2019-01-25T11:04:23.247Z,55.04
2019-01-25T11:06:55.721Z,55.10
2019-01-25T11:09:30.308Z,55.48
2019-01-25T11:12:01.475Z,55.25
2019-01-25T11:14:32.908Z,54.50
2019-01-25T11:17:03.146Z,55.34
2019-01-25T11:19:36.199Z,55.06
2019-01-25T11:22:06.667Z,55.08
2019-01-25T11:24:36.884Z,55.05
2019-01-25T11:27:09.987Z,55.13
2019-01-25T11:29:40.374Z,55.04
2019-01-25T11:32:11.541Z,54.79
2019-01-25T11:34:41.763Z,55.20
2019-01-25T11:37:12.002Z,55.00
2019-01-25T11:39:43.430Z,55.06
2019-01-25T11:42:15.269Z,55.73
2019-01-25T11:44:47.118Z,55.92
2019-01-25T11:47:19.892Z,55.91
2019-01-25T11:49:55.213Z,56.67
2019-01-25T11:52:32.344Z,56.57
2019-01-25T11:55:06.046Z,56.58
2019-01-25T11:57:37.458Z,57.25
2019-01-25T12:00:14.476Z,56.90
2019-01-25T12:02:44.988Z,57.59
2019-01-25T12:05:18.053Z,56.92
2019-01-25T12:07:48.305Z,56.60
2019-01-25T12:10:27.365Z,56.60
2019-01-25T12:12:57.626Z,56.39
2019-01-25T12:15:27.851Z,56.47
2019-01-25T12:17:58.100Z,56.31
2019-01-25T12:20:31.284Z,57.11
2019-01-25T12:23:01.579Z,56.84
2019-01-25T12:25:31.777Z,57.32
2019-01-25T12:28:05.353Z,57.70
2019-01-25T12:30:38.653Z,59.04
2019-01-25T12:33:08.905Z,58.84
2019-01-25T12:35:40.662Z,58.84
2019-01-25T12:38:10.906Z,58.85
2019-01-25T12:40:42.359Z,59.06
2019-01-25T12:43:13.074Z,59.03
2019-01-25T12:45:43.297Z,59.40
2019-01-25T12:48:13.538Z,59.32
2019-01-25T12:50:52.821Z,59.77
2019-01-25T12:53:23.340Z,59.83
2019-01-25T12:55:53.572Z,60.25
2019-01-25T12:58:24.180Z,60.17
2019-01-25T13:00:55.376Z,60.04
2019-01-25T13:03:25.624Z,60.00
2019-01-25T13:05:55.846Z,60.42
2019-01-25T13:08:26.083Z,59.77
2019-01-25T13:10:56.310Z,60.41
2019-01-25T13:13:31.531Z,60.09
2019-01-25T13:15:58.481Z,60.41
2019-01-25T13:18:28.725Z,59.84
2019-01-25T13:20:59.716Z,59.54
2019-01-25T13:23:29.995Z,59.75
2019-01-25T13:26:00.242Z,59.56
2019-01-25T13:28:30.663Z,60.75
2019-01-25T13:31:00.874Z,59.90
2019-01-25T13:33:31.361Z,60.37
2019-01-25T13:36:01.599Z,59.82
2019-01-25T13:38:32.148Z,59.84
2019-01-25T13:41:02.242Z,59.35
2019-01-25T13:43:38.977Z,59.80
2019-01-25T13:46:04.436Z,59.70
2019-01-25T13:48:35.017Z,59.13
2019-01-25T13:51:05.245Z,59.61
2019-01-25T13:53:35.504Z,59.42
2019-01-25T13:56:05.720Z,58.54
2019-01-25T13:58:35.975Z,57.73
2019-01-25T14:01:06.349Z,58.15
2019-01-25T14:03:38.154Z,58.24
2019-01-25T14:06:08.394Z,58.37
2019-01-25T14:08:38.652Z,58.39
2019-01-25T14:11:09.955Z,59.01
2019-01-25T14:13:46.624Z,60.45
2019-01-25T14:16:12.199Z,59.09
2019-01-25T14:18:44.873Z,58.87
2019-01-25T14:21:15.401Z,59.01
2019-01-25T14:23:47.318Z,59.76
2019-01-25T14:26:20.378Z,59.34
2019-01-25T14:28:50.635Z,59.43
2019-01-25T14:31:20.874Z,59.34
2019-01-25T14:33:51.147Z,59.42
2019-01-25T14:36:21.373Z,59.59
2019-01-25T14:38:51.628Z,60.13
2019-01-25T14:41:21.861Z,60.05
2019-01-25T14:43:54.663Z,59.93
2019-01-25T14:46:24.031Z,59.88
2019-01-25T14:48:54.289Z,59.64
2019-01-25T14:51:26.135Z,59.59
2019-01-25T14:53:56.594Z,60.46
2019-01-25T14:56:28.184Z,60.23
2019-01-25T14:58:58.619Z,59.97
2019-01-25T15:01:30.035Z,60.31
2019-01-25T15:04:01.515Z,59.80
2019-01-25T15:06:34.506Z,60.58
2019-01-25T15:09:07.862Z,60.80
2019-01-25T15:11:38.163Z,60.98
2019-01-25T15:14:09.492Z,61.00
2019-01-25T15:16:41.099Z,60.79
2019-01-25T15:19:12.616Z,61.07
2019-01-25T15:21:44.069Z,61.74
2019-01-25T15:24:16.705Z,61.53
2019-01-25T15:26:53.626Z,61.70
2019-01-25T15:29:27.073Z,62.47
2019-01-25T15:32:06.704Z,62.34
2019-01-25T15:34:41.238Z,62.76
2019-01-25T15:37:13.367Z,62.74
2019-01-25T15:39:44.504Z,62.83
2019-01-25T15:42:17.508Z,63.16
2019-01-25T15:44:47.766Z,63.45
2019-01-25T15:47:18.147Z,63.48
2019-01-25T15:49:48.403Z,63.46
2019-01-25T15:52:19.784Z,63.77
2019-01-25T15:54:50.284Z,63.87
2019-01-25T15:57:20.517Z,64.54
2019-01-25T15:59:50.775Z,64.48
2019-01-25T16:02:21.029Z,64.42
2019-01-25T16:04:53.258Z,64.51
2019-01-25T16:07:26.712Z,64.69
2019-01-25T16:09:58.707Z,64.51
2019-01-25T16:12:29.414Z,65.28
2019-01-25T16:14:59.674Z,64.96
2019-01-25T16:17:31.066Z,65.07
2019-01-25T16:20:04.241Z,64.85
2019-01-25T16:22:34.617Z,64.87
2019-01-25T16:25:16.640Z,65.41
2019-01-25T16:27:46.873Z,64.80
2019-01-25T16:30:22.582Z,64.47
2019-01-25T16:32:55.715Z,64.69
2019-01-25T16:35:25.962Z,64.41
2019-01-25T16:37:57.321Z,64.76
2019-01-25T16:40:32.362Z,65.13
2019-01-25T16:43:02.698Z,64.94
2019-01-25T16:45:36.017Z,65.16
2019-01-25T16:48:06.416Z,65.02
2019-01-25T16:50:40.049Z,65.21
2019-01-25T16:53:11.432Z,65.84
2019-01-25T16:55:41.683Z,65.65
2019-01-25T16:58:19.718Z,65.32
2019-01-25T17:00:52.728Z,65.29
2019-01-25T17:03:23.019Z,65.08
2019-01-25T17:05:54.471Z,64.93
2019-01-25T17:08:31.827Z,64.90
2019-01-25T17:11:02.598Z,64.65
2019-01-25T17:13:34.479Z,64.34
2019-01-25T17:16:06.469Z,64.86
2019-01-25T17:18:37.855Z,65.48
2019-01-25T17:21:08.111Z,65.58
2019-01-25T17:23:39.228Z,65.53
2019-01-25T17:26:14.947Z,65.70
2019-01-25T17:28:48.673Z,65.91
2019-01-25T17:31:20.427Z,65.58
2019-01-25T17:33:57.694Z,65.42
2019-01-25T17:36:37.085Z,65.65
2019-01-25T17:39:17.171Z,65.30
2019-01-25T17:41:48.586Z,65.75
2019-01-25T17:44:20.007Z,65.45
2019-01-25T17:46:50.342Z,65.41
2019-01-25T17:49:20.911Z,65.55
2019-01-25T17:51:52.850Z,65.82
2019-01-25T17:54:23.355Z,66.09
2019-01-25T17:56:54.462Z,66.17
2019-01-25T17:59:28.886Z,66.20
2019-01-25T18:02:00.831Z,65.72
2019-01-25T18:04:31.642Z,66.01
2019-01-25T18:07:03.243Z,66.07
2019-01-25T18:09:33.751Z,65.89
2019-01-25T18:12:04.135Z,66.05
2019-01-25T18:14:34.500Z,66.19
2019-01-25T18:17:12.709Z,65.79
2019-01-25T18:19:43.190Z,65.48
2019-01-25T18:22:13.623Z,65.39
2019-01-25T18:24:44.199Z,65.18
2019-01-25T18:27:14.466Z,64.97
2019-01-25T18:29:44.850Z,64.31
2019-01-25T18:32:18.113Z,64.08
2019-01-25T18:35:03.177Z,63.71
2019-01-25T18:37:33.861Z,63.42
2019-01-25T18:40:08.893Z,63.62
2019-01-25T18:42:39.531Z,63.37
2019-01-25T18:45:10.384Z,62.99
2019-01-25T18:47:40.775Z,62.92
2019-01-25T18:50:14.980Z,62.38
2019-01-25T18:52:47.133Z,60.99
2019-01-25T18:55:22.960Z,61.30
2019-01-25T18:57:53.636Z,60.75
2019-01-25T19:00:26.126Z,60.52
2019-01-25T19:02:59.602Z,60.65
2019-01-25T19:05:33.487Z,60.01
2019-01-25T19:08:07.240Z,60.19
2019-01-25T19:10:41.766Z,60.68
2019-01-25T19:13:14.408Z,60.54
2019-01-25T19:15:44.812Z,60.24
2019-01-25T19:18:16.053Z,59.88
2019-01-25T19:20:48.637Z,59.61
2019-01-25T19:23:24.507Z,60.01
2019-01-25T19:25:58.079Z,60.23
2019-01-25T19:28:31.288Z,60.40
2019-01-25T19:31:01.541Z,59.72
2019-01-25T19:33:33.919Z,60.06
2019-01-25T19:36:05.650Z,59.93
2019-01-25T19:38:37.740Z,59.36
2019-01-25T19:41:14.082Z,59.29
2019-01-25T19:43:45.564Z,59.39
2019-01-25T19:46:17.246Z,59.97
2019-01-25T19:48:48.923Z,59.56
2019-01-25T19:51:20.652Z,59.55
2019-01-25T19:53:51.101Z,59.38
2019-01-25T19:56:22.488Z,58.42
2019-01-25T19:58:55.486Z,58.35
2019-01-25T20:01:27.829Z,58.36
2019-01-25T20:03:58.087Z,57.91
2019-01-25T20:06:30.423Z,57.70
2019-01-25T20:09:01.657Z,57.47
2019-01-25T20:11:33.688Z,58.14
2019-01-25T20:14:09.043Z,57.63
2019-01-25T20:16:39.530Z,57.68
2019-01-25T20:19:13.139Z,57.73
2019-01-25T20:21:44.146Z,57.67
2019-01-25T20:24:16.455Z,58.43
2019-01-25T20:26:47.603Z,57.84
2019-01-25T20:29:19.233Z,57.80
2019-01-25T20:31:49.942Z,57.99
2019-01-25T20:34:20.198Z,58.29
2019-01-25T20:36:50.700Z,58.18
2019-01-25T20:39:23.310Z,58.17
2019-01-25T20:41:54.208Z,58.20
2019-01-25T20:44:24.471Z,58.36
2019-01-25T20:46:56.294Z,58.76
2019-01-25T20:49:26.685Z,58.86
2019-01-25T20:51:59.933Z,58.72
2019-01-25T20:54:30.186Z,58.82
2019-01-25T20:57:01.620Z,59.02
2019-01-25T20:59:33.160Z,59.60
2019-01-25T21:02:05.106Z,60.43
2019-01-25T21:04:35.552Z,60.59
2019-01-25T21:07:05.963Z,60.46
2019-01-25T21:09:36.550Z,60.68
2019-01-25T21:12:07.032Z,60.58
2019-01-25T21:14:37.550Z,60.92
2019-01-25T21:17:09.150Z,60.73
2019-01-25T21:19:39.535Z,61.05
2019-01-25T21:22:10.953Z,60.66
2019-01-25T21:24:41.663Z,61.77
2019-01-25T21:27:12.907Z,61.71
2019-01-25T21:29:44.741Z,61.80
2019-01-25T21:32:15.229Z,62.17
2019-01-25T21:34:45.530Z,61.90
2019-01-25T21:37:16.134Z,61.99
2019-01-25T21:39:46.528Z,61.90
2019-01-25T21:42:18.085Z,62.61
2019-01-25T21:44:48.487Z,61.81
2019-01-25T21:47:20.097Z,62.09
2019-01-25T21:49:50.502Z,62.43
2019-01-25T21:52:21.049Z,62.68
2019-01-25T21:54:51.262Z,62.47
2019-01-25T21:57:21.777Z,63.06
2019-01-25T21:59:52.224Z,63.15
2019-01-25T22:02:22.546Z,63.45
2019-01-25T22:04:54.534Z,62.78
2019-01-25T22:07:27.850Z,63.00
2019-01-25T22:09:59.268Z,62.63
2019-01-25T22:12:29.515Z,62.92
2019-01-25T22:15:00.935Z,62.78
2019-01-25T22:17:31.252Z,63.13
2019-01-25T22:20:01.690Z,62.75
2019-01-25T22:22:35.083Z,62.96
2019-01-25T22:25:08.066Z,63.45
2019-01-25T22:27:39.881Z,63.36
2019-01-25T22:30:22.112Z,63.46
2019-01-25T22:32:52.550Z,63.41
2019-01-25T22:35:26.339Z,63.51
2019-01-25T22:37:59.270Z,63.63
2019-01-25T22:40:32.160Z,63.63
2019-01-25T22:43:05.464Z,64.00
2019-01-25T22:45:38.576Z,64.18
2019-01-25T22:48:08.868Z,64.03
2019-01-25T22:50:40.298Z,64.08
2019-01-25T22:53:10.538Z,64.11
2019-01-25T22:55:41.954Z,63.54
2019-01-25T22:58:12.206Z,63.68
2019-01-25T23:00:52.835Z,64.19
2019-01-25T23:03:31.257Z,64.17
2019-01-25T23:06:24.417Z,63.91
2019-01-25T23:08:56.516Z,63.74
2019-01-25T23:11:26.922Z,63.62
2019-01-25T23:13:57.161Z,63.46
2019-01-25T23:16:28.607Z,63.10
2019-01-25T23:18:58.885Z,63.23
2019-01-25T23:21:31.885Z,63.77
2019-01-25T23:24:02.340Z,63.32
2019-01-25T23:26:35.005Z,63.43
2019-01-25T23:29:06.179Z,63.81
2019-01-25T23:31:37.606Z,63.50
2019-01-25T23:34:07.877Z,63.99
2019-01-25T23:36:39.293Z,63.67
2019-01-25T23:39:10.874Z,64.30
2019-01-25T23:41:41.268Z,64.10
2019-01-25T23:44:11.508Z,63.96
2019-01-25T23:46:42.922Z,64.84
2019-01-25T23:49:13.196Z,65.11
2019-01-25T23:51:44.609Z,65.17
2019-01-25T23:54:14.886Z,65.05
2019-01-25T23:56:46.280Z,65.25
2019-01-25T23:59:16.528Z,65.05
